Meteorología y climatología de Navarra
Datos de la estación - Meteo Navarra

Estación de Pamplona GN

Altitud 455 m.


Datos desde el 10/10/2019 hasta el 11/10/2019 en horario solar
Los datos son PROVISIONALES

Anterior Página 1 de 1 Siguiente Descargar: Formato para Excel 2000 o superior   Formato csv   Formato para OpenOffice Calc
Fecha Temperatura Humedad relativa Radiación global Insolación Precipitación Vel. viento 10 m Vel. viento 10 m Dir. viento 10 m
ºC % W/m² s l/m² m/s km/h º
10/10/2019 0:00 11.2 84 0.0 0 0.0 0.4 1.6 81
10/10/2019 0:10 11.1 85 0.0 0 0.0 0.0 0.1 87
10/10/2019 0:20 11.0 86 0.0 0 0.0 0.0 0.0 0
10/10/2019 0:30 11.0 86 0.0 0 0.0 0.0 0.0 0
10/10/2019 0:40 10.8 86 0.0 0 0.0 0.0 0.0 0
10/10/2019 0:50 10.8 86 0.0 0 0.0 0.1 0.2 93
10/10/2019 1:00 10.6 88 0.0 0 0.0 0.6 2.0 131
10/10/2019 1:10 10.6 87 0.0 0 0.0 0.0 0.0 0
10/10/2019 1:20 10.5 87 0.0 0 0.0 0.0 0.0 0
10/10/2019 1:30 10.4 88 0.0 0 0.0 0.0 0.0 0
10/10/2019 1:40 10.3 88 0.0 0 0.0 0.6 2.1 81
10/10/2019 1:50 10.1 89 0.0 0 0.0 0.8 3.0 77
10/10/2019 2:00 10.1 89 0.0 0 0.0 0.3 0.9 75
10/10/2019 2:10 10.1 89 0.0 0 0.0 0.0 0.0 0
10/10/2019 2:20 10.1 88 0.0 0 0.0 0.0 0.0 0
10/10/2019 2:30 10.1 88 0.0 0 0.0 0.0 0.0 0
10/10/2019 2:40 9.8 89 0.0 0 0.0 0.1 0.5 83
10/10/2019 2:50 9.5 90 0.0 0 0.0 0.3 1.0 91
10/10/2019 3:00 9.6 90 0.0 0 0.0 0.1 0.2 91
10/10/2019 3:10 9.7 90 0.0 0 0.0 0.0 0.0 0
10/10/2019 3:20 9.6 90 0.0 0 0.0 0.0 0.0 0
10/10/2019 3:30 9.5 90 0.0 0 0.0 0.1 0.3 64
10/10/2019 3:40 9.4 90 0.0 0 0.0 0.7 2.5 41
10/10/2019 3:50 9.3 91 0.0 0 0.0 0.0 0.0 0
10/10/2019 4:00 9.2 91 0.0 0 0.0 0.0 0.0 0
10/10/2019 4:10 9.2 91 0.0 0 0.0 0.0 0.0 0
10/10/2019 4:20 8.9 92 0.0 0 0.0 0.7 2.4 50
10/10/2019 4:30 8.8 92 0.0 0 0.0 0.3 1.1 60
10/10/2019 4:40 8.8 92 0.0 0 0.0 0.0 0.1 345
10/10/2019 4:50 9.0 92 0.0 0 0.0 1.2 4.4 358
10/10/2019 5:00 9.0 92 0.0 0 0.0 1.0 3.6 14
10/10/2019 5:10 8.9 92 0.0 0 0.0 0.5 1.7 26
10/10/2019 5:20 8.8 92 0.0 0 0.0 0.6 2.2 42
10/10/2019 5:30 8.7 92 0.0 0 0.0 0.1 0.3 55
10/10/2019 5:40 8.5 93 0.0 0 0.0 0.0 0.0 0
10/10/2019 5:50 8.5 93 0.0 0 0.0 0.0 0.0 0
10/10/2019 6:00 8.4 93 0.0 0 0.0 0.0 0.0 0
10/10/2019 6:10 8.3 93 0.0 0 0.0 0.1 0.3 148
10/10/2019 6:20 8.4 93 0.0 0 0.0 0.4 1.5 113
10/10/2019 6:30 8.5 93 1.2 0 0.0 0.2 0.5 89
10/10/2019 6:40 8.4 93 36.6 468 0.0 0.8 2.7 43
10/10/2019 6:50 8.5 93 64.8 600 0.0 1.0 3.4 40
10/10/2019 7:00 8.7 91 76.6 580 0.0 1.0 3.7 59
10/10/2019 7:10 9.0 90 118.9 600 0.0 0.8 3.0 61
10/10/2019 7:20 9.3 88 144.6 600 0.0 0.9 3.4 52
10/10/2019 7:30 9.9 86 172.9 600 0.0 1.2 4.2 49
10/10/2019 7:40 10.5 84 204.7 600 0.0 0.0 0.1 61
10/10/2019 7:50 10.9 82 238.6 600 0.0 0.1 0.3 95
10/10/2019 8:00 11.2 80 263.8 600 0.0 0.6 2.3 80
10/10/2019 8:10 11.3 79 286.6 600 0.0 0.3 1.2 91
10/10/2019 8:20 11.7 78 319.4 600 0.0 0.3 1.0 52
10/10/2019 8:30 12.3 77 344.8 600 0.0 0.3 1.0 44
10/10/2019 8:40 12.7 75 376.0 600 0.0 0.1 0.4 58
10/10/2019 8:50 13.5 73 403.6 600 0.0 0.0 0.1 109
10/10/2019 9:00 14.2 70 429.8 600 0.0 0.2 0.7 116
10/10/2019 9:10 14.5 69 455.7 600 0.0 0.3 1.2 130
10/10/2019 9:20 14.6 69 479.2 600 0.0 0.3 0.9 115
10/10/2019 9:30 15.0 68 503.7 600 0.0 0.1 0.3 95
10/10/2019 9:40 15.5 66 525.2 600 0.0 0.2 0.9 94
10/10/2019 9:50 16.5 63 545.6 600 0.0 0.4 1.4 265
10/10/2019 10:00 16.7 60 566.3 600 0.0 0.9 3.1 270
10/10/2019 10:10 17.1 59 584.1 600 0.0 0.3 1.2 294
10/10/2019 10:20 17.6 56 601.3 600 0.0 0.9 3.1 247
10/10/2019 10:30 17.9 54 615.9 600 0.0 0.6 2.2 212
10/10/2019 10:40 17.8 54 630.7 600 0.0 1.3 4.8 301
10/10/2019 10:50 18.1 52 643.6 600 0.0 0.4 1.4 199
10/10/2019 11:00 18.5 51 653.9 600 0.0 0.6 2.3 262
10/10/2019 11:10 19.1 50 662.1 600 0.0 0.6 2.0 337
10/10/2019 11:20 19.3 49 667.9 600 0.0 0.8 2.7 267
10/10/2019 11:30 19.8 47 676.7 600 0.0 1.2 4.3 247
10/10/2019 11:40 19.7 47 681.8 600 0.0 0.9 3.2 202
10/10/2019 11:50 19.8 47 683.2 600 0.0 2.0 7.3 276
10/10/2019 12:00 19.8 47 683.0 600 0.0 1.5 5.4 322
10/10/2019 12:10 20.1 46 682.3 600 0.0 1.5 5.5 274
10/10/2019 12:20 20.3 45 681.1 600 0.0 1.7 6.0 258
10/10/2019 12:30 20.5 46 674.6 600 0.0 1.1 4.0 358
10/10/2019 12:40 20.4 44 672.1 600 0.0 2.1 7.5 276
10/10/2019 12:50 20.8 43 665.3 600 0.0 1.8 6.6 238
10/10/2019 13:00 21.0 42 656.3 600 0.0 1.9 6.9 252
10/10/2019 13:10 21.2 41 642.2 600 0.0 2.5 9.0 248
10/10/2019 13:20 21.1 41 633.4 600 0.0 2.7 9.7 265
10/10/2019 13:30 21.3 40 617.2 600 0.0 1.9 6.9 249
10/10/2019 13:40 21.5 40 588.1 600 0.0 1.8 6.6 284
10/10/2019 13:50 21.4 41 586.2 600 0.0 2.0 7.1 261
10/10/2019 14:00 21.5 40 567.3 600 0.0 2.8 9.9 281
10/10/2019 14:10 21.5 40 545.4 600 0.0 1.5 5.4 276
10/10/2019 14:20 21.8 39 524.8 600 0.0 1.6 5.8 315
10/10/2019 14:30 21.8 39 501.4 600 0.0 1.7 6.2 273
10/10/2019 14:40 21.8 38 477.9 600 0.0 2.5 9.1 279
10/10/2019 14:50 21.9 38 452.7 600 0.0 2.1 7.5 291
10/10/2019 15:00 21.7 39 424.5 600 0.0 0.8 2.7 322
10/10/2019 15:10 21.9 38 396.3 600 0.0 0.8 2.8 33
10/10/2019 15:20 21.8 40 367.7 600 0.0 0.9 3.3 339
10/10/2019 15:30 21.7 39 338.1 600 0.0 0.9 3.1 2
10/10/2019 15:40 21.9 39 307.5 600 0.0 0.9 3.1 355
10/10/2019 15:50 21.6 39 278.8 600 0.0 1.5 5.3 333
10/10/2019 16:00 21.4 40 247.0 600 0.0 1.2 4.1 9
10/10/2019 16:10 21.1 41 216.3 600 0.0 1.8 6.5 357
10/10/2019 16:20 20.8 43 185.1 600 0.0 1.3 4.7 26
10/10/2019 16:30 20.7 45 153.4 600 0.0 1.2 4.3 25
10/10/2019 16:40 20.3 46 123.3 600 0.0 1.9 6.9 21
10/10/2019 16:50 20.1 47 94.2 600 0.0 1.4 5.1 30
10/10/2019 17:00 19.8 48 66.6 600 0.0 1.4 5.1 36
10/10/2019 17:10 19.5 49 41.2 594 0.0 1.2 4.2 21
10/10/2019 17:20 19.2 50 8.3 0 0.0 1.2 4.3 19
10/10/2019 17:30 18.9 51 0.0 0 0.0 1.2 4.4 27
10/10/2019 17:40 18.5 53 0.0 0 0.0 0.7 2.4 39
10/10/2019 17:50 18.1 55 0.0 0 0.0 0.7 2.3 63
10/10/2019 18:00 17.8 57 0.0 0 0.0 0.3 1.0 45
10/10/2019 18:10 17.5 58 0.0 0 0.0 0.1 0.5 34
10/10/2019 18:20 17.2 60 0.0 0 0.0 1.0 3.7 39
10/10/2019 18:30 16.8 62 0.0 0 0.0 1.5 5.5 56
10/10/2019 18:40 16.6 64 0.0 0 0.0 1.6 5.9 51
10/10/2019 18:50 16.3 65 0.0 0 0.0 1.5 5.4 39
10/10/2019 19:00 16.1 66 0.0 0 0.0 0.8 3.0 54
10/10/2019 19:10 15.8 68 0.0 0 0.0 0.8 2.8 51
10/10/2019 19:20 15.6 69 0.0 0 0.0 1.3 4.6 83
10/10/2019 19:30 15.5 70 0.0 0 0.0 1.6 5.6 65
10/10/2019 19:40 15.3 70 0.0 0 0.0 1.2 4.2 65
10/10/2019 19:50 15.0 70 0.0 0 0.0 1.0 3.5 73
10/10/2019 20:00 14.8 72 0.0 0 0.0 0.7 2.4 68
10/10/2019 20:10 14.6 72 0.0 0 0.0 0.8 3.0 75
10/10/2019 20:20 14.6 72 0.0 0 0.0 1.3 4.6 97
10/10/2019 20:30 14.4 73 0.0 0 0.0 1.2 4.5 102
10/10/2019 20:40 14.3 73 0.0 0 0.0 1.9 6.8 91
10/10/2019 20:50 14.1 74 0.0 0 0.0 1.9 6.8 92
10/10/2019 21:00 13.9 74 0.0 0 0.0 1.4 5.2 77
10/10/2019 21:10 13.7 75 0.0 0 0.0 1.4 5.0 86
10/10/2019 21:20 13.5 76 0.0 0 0.0 1.7 6.2 85
10/10/2019 21:30 13.2 77 0.0 0 0.0 1.6 5.6 79
10/10/2019 21:40 13.1 77 0.0 0 0.0 2.0 7.2 78
10/10/2019 21:50 13.0 78 0.0 0 0.0 1.8 6.6 86
10/10/2019 22:00 12.8 78 0.0 0 0.0 0.9 3.2 61
10/10/2019 22:10 12.7 78 0.0 0 0.0 1.4 4.9 75
10/10/2019 22:20 12.6 79 0.0 0 0.0 1.5 5.5 76
10/10/2019 22:30 12.4 79 0.0 0 0.0 1.6 5.6 52
10/10/2019 22:40 12.2 80 0.0 0 0.0 1.3 4.6 62
10/10/2019 22:50 12.1 81 0.0 0 0.0 1.5 5.4 69
10/10/2019 23:00 12.0 81 0.0 0 0.0 1.4 4.9 63
10/10/2019 23:10 12.0 81 0.0 0 0.0 1.5 5.3 88
10/10/2019 23:20 12.2 79 0.0 0 0.0 2.3 8.4 102
10/10/2019 23:30 12.2 78 0.0 0 0.0 1.5 5.4 79
10/10/2019 23:40 12.0 78 0.0 0 0.0 1.2 4.4 86
10/10/2019 23:50 12.0 79 0.0 0 0.0 0.9 3.3 76
Anterior Página 1 de 1 Siguiente

NOTA: Tipo de datos según el color:
   - Valores diarios o 10 minutos correctos
   - Valores diarios calculados a partir de un número de datos 10 minutos menor que 144 y mayor que 120, o de un número de datos semihorarios menor que 48 y mayor que 40 (caso de las estaciones de Riegos de Navarra y del MARM)
   - Valores diez minutos estimados


Contacto        Enlaces        Aviso legal